Huron, South Dakota
Current Conditions -  °F | °C
As of 6:55 AM on Thursday 30 Oct 2014 (Local Time) from KHON Reporting Station
Clear Clear  
Wind Chill: 29°   Ceiling: Unl
Heat Index: 36°   Visibility: 10mi
Dew Point: 32°   Wind: 9mph
Humidity: 86%   Direction: 310°NW
Pressure: 30.05"   Gusts: NA
Location:  44.36°N, 98.21°W
Report Text: KHON 301155Z AUTO 31008KT 10SM CLR 02/00 A3005 RMK AO2 SLP183 T00220000 10078 20017 53021
Loading
Personal Weather Stations






























Interactive Weather Map
Tropical Storm Tracking
New forecast layout! Learn more

10-Day Weather Forecast

Advertisements
Track Severe Weather on mobile